Terminal Aerodrome Forecast
Issued by NWS Hastings, NE

Home | Current Version | Previous Version | Text Only | Print | Product List | Glossary On
Versions: 1 2 3 4 5 6 7 8 9 10 11 12 13 14 15 16 17 18 19 20 21
000
FTUS43 KGID 251756
TAFGRI
TAF
KGRI 251756Z 2518/2618 20010KT P6SM SCT025
     FM260000 VRB06KT P6SM SCT030
     FM260200 VRB06KT P6SM VCTS SCT050CB
     FM260600 VRB06KT 6SM BR SCT015
     FM261500 09010KT P6SM SCT020=

USA.gov is the U.S. government's official web portal to all federal, state and local government web resources and services.